Time;durP1;ratioP1;P1;durP2;ratioP2;P2;SDS_P1;SDS_P2;PMS_P1;PMS_P2;Temp;Humidity;BMP_temperature;BMP_pressure;BME280_temperature;BME280_humidity;BME280_pressure;Samples;Min_cycle;Max_cycle;Signal;HPM_P1;HPM_P2
2022/09/13 00:00:19;;;;;;;3.10;2.00;;;;;;;;;;5064329;28;20188;-75
2022/09/13 00:02:45;;;;;;;2.80;1.97;;;;;;;;;;5051075;28;20267;-75
2022/09/13 00:05:10;;;;;;;1.97;1.87;;;;;;;;;;5064043;28;20267;-75
2022/09/13 00:07:35;;;;;;;2.03;1.93;;;;;;;;;;5048322;28;20211;-75
2022/09/13 00:10:00;;;;;;;1.97;1.80;;;;;;;;;;5045586;28;22733;-76
2022/09/13 00:12:26;;;;;;;4.17;2.00;;;;;;;;;;5062702;28;20209;-75
2022/09/13 00:14:51;;;;;;;1.70;1.60;;;;;;;;;;5040117;28;20260;-75
2022/09/13 00:17:16;;;;;;;1.60;1.50;;;;;;;;;;5047262;28;20219;-75
2022/09/13 00:19:41;;;;;;;1.83;1.73;;;;;;;;;;5049705;28;20188;-75
2022/09/13 00:22:07;;;;;;;1.70;1.60;;;;;;;;;;5047382;28;20254;-75
2022/09/13 00:24:32;;;;;;;2.93;1.27;;;;;;;;;;5046310;28;20175;-75
2022/09/13 00:26:58;;;;;;;1.27;1.27;;;;;;;;;;5046693;28;20177;-75
2022/09/13 00:29:23;;;;;;;1.43;1.33;;;;;;;;;;5045527;28;20241;-75
2022/09/13 00:31:48;;;;;;;1.60;1.50;;;;;;;;;;5045060;28;20182;-75
2022/09/13 00:34:14;;;;;;;1.57;1.43;;;;;;;;;;5060873;28;20292;-75
2022/09/13 00:36:39;;;;;;;1.30;1.20;;;;;;;;;;5045321;28;20187;-75
2022/09/13 00:39:04;;;;;;;1.50;1.40;;;;;;;;;;5051418;28;20175;-75
2022/09/13 00:41:29;;;;;;;1.83;1.73;;;;;;;;;;5065041;28;20257;-75
2022/09/13 00:43:56;;;;;;;1.63;1.50;;;;;;;;;;5048468;28;20177;-75
2022/09/13 00:46:33;;;;;;;2.03;1.50;;;;;;;;;;5050961;28;20169;-75
2022/09/13 00:49:01;;;;;;;1.57;1.47;;;;;;;;;;5042534;28;20180;-75
2022/09/13 00:51:27;;;;;;;1.60;1.37;;;;;;;;;;5048728;28;20251;-75
2022/09/13 00:53:54;;;;;;;1.60;1.50;;;;;;;;;;5060634;28;20266;-75
2022/09/13 00:56:35;;;;;;;1.53;1.43;;;;;;;;;;5049248;28;20208;-75
2022/09/13 00:59:04;;;;;;;1.90;1.50;;;;;;;;;;5044668;28;20260;-75
2022/09/13 01:01:32;;;;;;;1.80;1.70;;;;;;;;;;5048680;28;20202;-75
2022/09/13 01:04:01;;;;;;;1.70;1.60;;;;;;;;;;5052249;28;20179;-75
2022/09/13 01:06:29;;;;;;;1.57;1.47;;;;;;;;;;5048039;28;20174;-75
2022/09/13 01:08:57;;;;;;;1.47;1.37;;;;;;;;;;5054112;28;20179;-75
2022/09/13 01:11:26;;;;;;;1.87;1.70;;;;;;;;;;5045846;28;20197;-75
2022/09/13 01:13:53;;;;;;;1.70;1.60;;;;;;;;;;5070544;28;20201;-75
2022/09/13 01:16:18;;;;;;;1.60;1.50;;;;;;;;;;5035573;28;20283;-75
2022/09/13 01:18:43;;;;;;;2.00;1.53;;;;;;;;;;5064678;28;20192;-75
2022/09/13 01:21:12;;;;;;;1.40;1.30;;;;;;;;;;5049023;28;20215;-75
2022/09/13 01:23:37;;;;;;;1.50;1.40;;;;;;;;;;5044504;28;20179;-75
2022/09/13 01:26:02;;;;;;;1.93;1.73;;;;;;;;;;5046771;28;20266;-75
2022/09/13 01:28:30;;;;;;;1.57;1.47;;;;;;;;;;5007041;28;1124777;-75
2022/09/13 01:31:14;;;;;;;1.70;1.60;;;;;;;;;;5043181;28;20200;-75
2022/09/13 01:33:51;;;;;;;1.70;1.60;;;;;;;;;;5050573;28;20244;-75
2022/09/13 01:36:33;;;;;;;1.50;1.40;;;;;;;;;;5046616;28;20186;-75
2022/09/13 01:39:05;;;;;;;1.60;1.50;;;;;;;;;;5057778;28;20269;-75
2022/09/13 01:41:34;;;;;;;1.97;1.80;;;;;;;;;;5044495;28;20254;-75
2022/09/13 01:44:07;;;;;;;1.60;1.50;;;;;;;;;;5044498;28;20181;-75
2022/09/13 01:46:38;;;;;;;1.73;1.63;;;;;;;;;;5043558;28;20175;-75
2022/09/13 01:49:22;;;;;;;2.20;1.77;;;;;;;;;;5046270;28;20184;-75
2022/09/13 01:51:48;;;;;;;1.60;1.50;;;;;;;;;;5047331;28;20187;-75
2022/09/13 01:54:27;;;;;;;1.70;1.60;;;;;;;;;;5061813;28;20311;-75
2022/09/13 01:57:13;;;;;;;1.77;1.67;;;;;;;;;;5047024;28;20217;-75
2022/09/13 01:59:38;;;;;;;1.70;1.60;;;;;;;;;;5057064;28;20185;-75
2022/09/13 02:02:06;;;;;;;1.60;1.50;;;;;;;;;;5049338;28;20227;-75
2022/09/13 02:04:43;;;;;;;2.83;1.70;;;;;;;;;;5048900;28;20174;-75
2022/09/13 02:07:09;;;;;;;1.80;1.70;;;;;;;;;;5047279;28;20179;-75
2022/09/13 02:09:37;;;;;;;1.60;1.50;;;;;;;;;;5045571;28;20251;-75
2022/09/13 02:12:05;;;;;;;6.17;1.70;;;;;;;;;;5046578;28;20177;-75
2022/09/13 02:14:33;;;;;;;2.67;1.60;;;;;;;;;;5063003;28;20273;-75
2022/09/13 02:16:59;;;;;;;1.70;1.60;;;;;;;;;;5044053;28;20179;-75
2022/09/13 02:19:37;;;;;;;1.77;1.47;;;;;;;;;;5047586;28;20186;-75
2022/09/13 02:22:04;;;;;;;2.10;1.90;;;;;;;;;;5044493;28;20201;-75
2022/09/13 02:24:35;;;;;;;1.67;1.57;;;;;;;;;;5049542;28;20184;-75
2022/09/13 02:27:10;;;;;;;2.10;1.90;;;;;;;;;;5050128;28;20176;-75
2022/09/13 02:29:36;;;;;;;2.20;1.80;;;;;;;;;;5048980;28;20228;-75
2022/09/13 02:32:05;;;;;;;1.80;1.67;;;;;;;;;;5051448;28;20201;-75
2022/09/13 02:34:33;;;;;;;2.10;1.73;;;;;;;;;;5064472;28;20548;-75
2022/09/13 02:37:00;;;;;;;1.60;1.50;;;;;;;;;;5048615;28;20187;-75
2022/09/13 02:39:28;;;;;;;3.67;1.80;;;;;;;;;;5041825;28;20213;-75
2022/09/13 02:41:53;;;;;;;1.77;1.67;;;;;;;;;;5067931;28;20459;-75
2022/09/13 02:44:39;;;;;;;1.40;1.30;;;;;;;;;;5049955;28;20174;-75
2022/09/13 02:47:23;;;;;;;1.70;1.60;;;;;;;;;;5066554;28;20175;-75
2022/09/13 02:49:54;;;;;;;1.90;1.60;;;;;;;;;;5055722;28;20257;-75
2022/09/13 02:52:38;;;;;;;3.33;1.77;;;;;;;;;;5052461;28;20178;-75
2022/09/13 02:55:24;;;;;;;1.60;1.50;;;;;;;;;;5044938;28;20182;-75
2022/09/13 02:57:56;;;;;;;2.47;1.57;;;;;;;;;;5051054;28;20215;-75
2022/09/13 03:00:22;;;;;;;1.40;1.30;;;;;;;;;;5045948;28;20265;-75
2022/09/13 03:02:47;;;;;;;1.40;1.30;;;;;;;;;;5062051;28;20205;-75
2022/09/13 03:05:13;;;;;;;1.47;1.37;;;;;;;;;;5040442;28;20179;-75
2022/09/13 03:07:38;;;;;;;1.67;1.57;;;;;;;;;;5051641;28;20176;-75
2022/09/13 03:10:08;;;;;;;1.73;1.63;;;;;;;;;;5050536;28;20180;-75
2022/09/13 03:12:50;;;;;;;1.67;1.43;;;;;;;;;;5066520;28;20207;-75
2022/09/13 03:15:28;;;;;;;3.03;1.67;;;;;;;;;;5043007;28;20178;-75
2022/09/13 03:18:02;;;;;;;1.67;1.57;;;;;;;;;;5039979;28;20183;-75
2022/09/13 03:20:34;;;;;;;2.70;1.50;;;;;;;;;;5050402;28;20559;-75
2022/09/13 03:23:11;;;;;;;1.87;1.40;;;;;;;;;;5062624;28;20178;-75
2022/09/13 03:25:40;;;;;;;1.40;1.30;;;;;;;;;;5056200;28;20189;-75
2022/09/13 03:28:08;;;;;;;1.43;1.33;;;;;;;;;;5048183;28;20187;-75
2022/09/13 03:30:34;;;;;;;1.80;1.70;;;;;;;;;;5046381;28;20178;-75
2022/09/13 03:33:06;;;;;;;3.23;1.90;;;;;;;;;;5063957;28;20180;-75
2022/09/13 03:35:37;;;;;;;1.50;1.40;;;;;;;;;;5046634;28;20199;-75
2022/09/13 03:38:07;;;;;;;1.57;1.47;;;;;;;;;;5047402;28;20184;-75
2022/09/13 03:40:32;;;;;;;2.40;1.37;;;;;;;;;;5049395;28;20197;-74
2022/09/13 03:43:03;;;;;;;2.20;1.60;;;;;;;;;;5045136;28;20182;-75
2022/09/13 03:45:30;;;;;;;3.73;1.80;;;;;;;;;;5042201;28;20174;-75
2022/09/13 03:47:56;;;;;;;1.60;1.50;;;;;;;;;;5062655;28;20185;-75
2022/09/13 03:50:23;;;;;;;2.00;1.90;;;;;;;;;;5045496;28;20174;-75
2022/09/13 03:52:50;;;;;;;1.63;1.53;;;;;;;;;;5068038;28;20175;-75
2022/09/13 03:55:17;;;;;;;3.57;1.80;;;;;;;;;;5049555;28;20174;-75
2022/09/13 03:57:43;;;;;;;1.60;1.50;;;;;;;;;;5043671;28;20251;-75
2022/09/13 04:00:08;;;;;;;2.63;2.17;;;;;;;;;;5060433;28;20290;-75
2022/09/13 04:02:34;;;;;;;2.00;1.83;;;;;;;;;;5067066;28;20207;-75
2022/09/13 04:04:59;;;;;;;1.73;1.63;;;;;;;;;;5045699;28;20188;-75
2022/09/13 04:07:24;;;;;;;3.00;1.90;;;;;;;;;;5036870;28;20194;-75
2022/09/13 04:09:50;;;;;;;1.60;1.50;;;;;;;;;;5043127;28;20281;-76
2022/09/13 04:12:16;;;;;;;1.90;1.70;;;;;;;;;;5060901;28;20196;-75
2022/09/13 04:14:42;;;;;;;2.00;1.90;;;;;;;;;;5064862;28;20188;-75
2022/09/13 04:17:08;;;;;;;2.37;2.17;;;;;;;;;;5065303;28;20238;-75
2022/09/13 04:19:33;;;;;;;1.60;1.50;;;;;;;;;;5041307;28;20176;-75
2022/09/13 04:21:58;;;;;;;2.53;1.50;;;;;;;;;;5064230;28;20230;-75
2022/09/13 04:24:28;;;;;;;3.07;1.93;;;;;;;;;;5052011;28;20209;-75
2022/09/13 04:26:54;;;;;;;2.53;1.50;;;;;;;;;;5039146;28;20178;-75
2022/09/13 04:29:20;;;;;;;1.97;1.50;;;;;;;;;;5052656;28;20216;-75
2022/09/13 04:31:45;;;;;;;1.50;1.40;;;;;;;;;;5019669;28;21475;-75
2022/09/13 04:34:11;;;;;;;1.20;1.10;;;;;;;;;;5026856;28;20198;-75
2022/09/13 04:36:39;;;;;;;1.53;1.30;;;;;;;;;;5028669;28;20182;-75
2022/09/13 04:39:05;;;;;;;1.20;1.20;;;;;;;;;;5035127;28;20179;-75
2022/09/13 04:41:33;;;;;;;1.43;1.20;;;;;;;;;;5027751;28;20217;-75
2022/09/13 04:43:58;;;;;;;1.30;1.20;;;;;;;;;;5028619;28;20176;-75
2022/09/13 04:46:23;;;;;;;1.40;1.13;;;;;;;;;;5044674;28;20206;-75
2022/09/13 04:48:49;;;;;;;1.20;1.20;;;;;;;;;;5049773;28;20260;-75
2022/09/13 04:51:15;;;;;;;1.10;1.10;;;;;;;;;;5048931;28;20271;-75
2022/09/13 04:53:40;;;;;;;2.57;1.10;;;;;;;;;;5035083;28;20175;-75
2022/09/13 04:56:06;;;;;;;2.60;1.60;;;;;;;;;;5027803;28;20176;-75
2022/09/13 04:58:32;;;;;;;1.30;1.20;;;;;;;;;;5024944;28;20187;-75
2022/09/13 05:01:04;;;;;;;1.30;1.20;;;;;;;;;;5039868;28;20284;-75
2022/09/13 05:03:30;;;;;;;1.13;1.13;;;;;;;;;;5030901;28;20176;-75
2022/09/13 05:06:00;;;;;;;6.83;2.00;;;;;;;;;;5024043;28;20184;-75
2022/09/13 05:08:26;;;;;;;4.87;1.50;;;;;;;;;;5025896;28;20208;-75
2022/09/13 05:10:51;;;;;;;1.40;1.30;;;;;;;;;;5050746;28;20229;-75
2022/09/13 05:13:16;;;;;;;1.30;1.20;;;;;;;;;;5033395;28;20235;-75
2022/09/13 05:15:42;;;;;;;1.80;1.30;;;;;;;;;;5045845;28;20186;-74
2022/09/13 05:18:07;;;;;;;1.40;1.10;;;;;;;;;;5025792;28;20203;-75
2022/09/13 05:20:32;;;;;;;1.40;1.30;;;;;;;;;;5028594;28;20186;-75
2022/09/13 05:22:57;;;;;;;3.50;1.30;;;;;;;;;;5034127;28;20181;-75
2022/09/13 05:25:22;;;;;;;8.37;1.50;;;;;;;;;;5044395;28;20181;-75
2022/09/13 05:27:48;;;;;;;1.30;1.20;;;;;;;;;;5051980;28;20174;-75
2022/09/13 05:30:13;;;;;;;2.63;1.33;;;;;;;;;;5047810;28;20247;-74
2022/09/13 05:32:39;;;;;;;1.30;1.20;;;;;;;;;;5044955;28;20187;-75
2022/09/13 05:35:04;;;;;;;1.50;1.07;;;;;;;;;;5044812;28;20208;-75
2022/09/13 05:37:29;;;;;;;1.20;1.10;;;;;;;;;;5042701;28;20169;-75
2022/09/13 05:39:55;;;;;;;1.30;1.20;;;;;;;;;;5054349;28;20189;-75
2022/09/13 05:42:20;;;;;;;4.20;1.50;;;;;;;;;;5052028;28;20211;-75
2022/09/13 05:44:45;;;;;;;0.87;0.87;;;;;;;;;;5052638;28;20215;-75
2022/09/13 05:47:12;;;;;;;1.20;1.10;;;;;;;;;;5075355;28;20173;-75
2022/09/13 05:49:37;;;;;;;1.10;1.10;;;;;;;;;;5066073;28;20224;-75
2022/09/13 05:52:02;;;;;;;1.13;1.03;;;;;;;;;;5047068;28;20218;-75
2022/09/13 05:54:28;;;;;;;4.10;1.80;;;;;;;;;;5046466;28;20180;-75
2022/09/13 05:56:56;;;;;;;2.53;1.30;;;;;;;;;;5051193;28;20182;-75
2022/09/13 05:59:21;;;;;;;1.33;1.23;;;;;;;;;;5052593;28;20231;-75
2022/09/13 06:01:47;;;;;;;1.40;1.30;;;;;;;;;;5059015;28;20194;-75
2022/09/13 06:04:13;;;;;;;3.33;1.50;;;;;;;;;;5066490;28;20193;-75
2022/09/13 06:06:38;;;;;;;3.13;1.80;;;;;;;;;;5041433;28;20199;-76
2022/09/13 06:09:05;;;;;;;1.43;1.30;;;;;;;;;;5045058;28;20204;-75
2022/09/13 06:11:31;;;;;;;3.17;1.33;;;;;;;;;;5044028;28;20232;-75
2022/09/13 06:13:56;;;;;;;1.93;1.40;;;;;;;;;;5067850;28;20176;-75
2022/09/13 06:16:22;;;;;;;1.90;1.30;;;;;;;;;;5045089;28;20211;-75
2022/09/13 06:18:47;;;;;;;1.87;1.47;;;;;;;;;;5041338;28;20243;-75
2022/09/13 06:21:16;;;;;;;2.40;1.50;;;;;;;;;;5050864;28;20204;-75
2022/09/13 06:23:42;;;;;;;1.57;1.47;;;;;;;;;;5048918;28;20242;-75
2022/09/13 06:26:11;;;;;;;2.27;1.43;;;;;;;;;;5049722;28;20269;-75
2022/09/13 06:28:37;;;;;;;1.53;1.40;;;;;;;;;;5046109;28;20238;-75
2022/09/13 06:31:05;;;;;;;1.20;1.03;;;;;;;;;;5052187;28;20227;-75
2022/09/13 06:33:31;;;;;;;1.27;1.10;;;;;;;;;;5049807;28;20185;-76
2022/09/13 06:35:59;;;;;;;2.73;1.47;;;;;;;;;;5051432;28;20188;-76
2022/09/13 06:38:24;;;;;;;1.90;1.30;;;;;;;;;;5050598;28;20226;-75
2022/09/13 06:40:57;;;;;;;1.17;1.17;;;;;;;;;;5047851;28;20208;-75
2022/09/13 06:43:23;;;;;;;1.87;1.53;;;;;;;;;;5041543;28;20260;-75
2022/09/13 06:45:48;;;;;;;1.30;1.20;;;;;;;;;;5049598;28;20241;-75
2022/09/13 06:48:13;;;;;;;1.70;1.30;;;;;;;;;;5043119;28;20175;-75
2022/09/13 06:50:38;;;;;;;1.70;1.60;;;;;;;;;;5043453;28;20258;-75
2022/09/13 06:53:04;;;;;;;1.30;1.20;;;;;;;;;;5066625;28;20291;-75
2022/09/13 06:55:29;;;;;;;1.50;1.37;;;;;;;;;;5066785;28;20199;-75
2022/09/13 06:57:57;;;;;;;2.13;1.20;;;;;;;;;;5049934;28;20181;-76
2022/09/13 07:00:22;;;;;;;3.90;1.57;;;;;;;;;;5048335;28;20271;-76
2022/09/13 07:02:51;;;;;;;2.77;1.20;;;;;;;;;;5050361;28;20300;-76
2022/09/13 07:05:17;;;;;;;1.47;1.40;;;;;;;;;;5050767;28;20179;-75
2022/09/13 07:07:43;;;;;;;1.50;1.40;;;;;;;;;;5054032;28;20178;-75
2022/09/13 07:10:08;;;;;;;2.30;1.43;;;;;;;;;;5048897;28;20198;-76
2022/09/13 07:12:33;;;;;;;1.40;1.30;;;;;;;;;;5067156;28;20177;-75
2022/09/13 07:14:58;;;;;;;1.73;1.30;;;;;;;;;;5049983;28;20194;-75
2022/09/13 07:17:24;;;;;;;1.27;1.17;;;;;;;;;;5046501;28;20181;-75
2022/09/13 07:19:49;;;;;;;1.40;1.30;;;;;;;;;;5048501;28;20178;-76
2022/09/13 07:22:14;;;;;;;2.10;1.50;;;;;;;;;;5066866;28;20211;-75
2022/09/13 07:24:39;;;;;;;2.67;1.30;;;;;;;;;;5051157;28;20178;-76
2022/09/13 07:27:05;;;;;;;1.97;1.40;;;;;;;;;;5069481;28;20202;-76
2022/09/13 07:29:30;;;;;;;1.43;1.30;;;;;;;;;;5049778;28;20228;-75
2022/09/13 07:31:57;;;;;;;4.00;1.70;;;;;;;;;;5047016;28;20184;-75
2022/09/13 07:34:23;;;;;;;1.27;1.17;;;;;;;;;;5064846;28;20261;-75
2022/09/13 07:36:48;;;;;;;1.40;1.30;;;;;;;;;;5048747;28;20568;-75
2022/09/13 07:39:15;;;;;;;1.43;1.33;;;;;;;;;;5067072;28;20180;-76
2022/09/13 07:41:40;;;;;;;1.87;1.70;;;;;;;;;;5050214;28;20198;-76
2022/09/13 07:44:06;;;;;;;1.50;1.40;;;;;;;;;;5062094;28;20174;-76
2022/09/13 07:46:34;;;;;;;1.10;1.10;;;;;;;;;;5050005;28;20202;-76
2022/09/13 07:49:00;;;;;;;1.47;1.37;;;;;;;;;;5046250;28;20184;-76
2022/09/13 07:51:27;;;;;;;1.33;1.23;;;;;;;;;;5062826;28;20189;-75
2022/09/13 07:53:55;;;;;;;2.53;1.67;;;;;;;;;;5047483;28;20178;-76
2022/09/13 07:56:21;;;;;;;1.30;1.20;;;;;;;;;;5064280;28;20226;-76
2022/09/13 07:58:47;;;;;;;2.30;1.50;;;;;;;;;;5047237;28;20245;-76
2022/09/13 08:01:20;;;;;;;3.43;2.80;;;;;;;;;;5067743;28;20194;-76
2022/09/13 08:03:53;;;;;;;3.13;1.30;;;;;;;;;;5052483;28;20211;-76
2022/09/13 08:06:18;;;;;;;1.20;1.03;;;;;;;;;;5068611;28;20176;-76
2022/09/13 08:08:43;;;;;;;1.73;1.23;;;;;;;;;;5049207;28;20614;-76
2022/09/13 08:11:11;;;;;;;2.33;2.10;;;;;;;;;;5049647;28;20188;-76
2022/09/13 08:13:36;;;;;;;1.10;1.10;;;;;;;;;;5066832;28;20201;-76
2022/09/13 08:16:03;;;;;;;1.17;1.10;;;;;;;;;;5049939;28;20220;-76
2022/09/13 08:18:28;;;;;;;1.10;1.10;;;;;;;;;;5043278;28;20190;-76
2022/09/13 08:20:56;;;;;;;2.00;1.20;;;;;;;;;;5053776;28;20185;-76
2022/09/13 08:23:21;;;;;;;1.37;1.27;;;;;;;;;;5047242;28;20186;-76
2022/09/13 08:25:47;;;;;;;2.53;1.60;;;;;;;;;;5042200;28;20186;-76
2022/09/13 08:28:16;;;;;;;4.90;4.60;;;;;;;;;;5049660;28;20227;-76
2022/09/13 08:30:42;;;;;;;2.00;1.60;;;;;;;;;;5062331;28;20182;-76
2022/09/13 08:33:08;;;;;;;1.70;1.40;;;;;;;;;;5042813;28;20170;-76
2022/09/13 08:35:34;;;;;;;1.70;1.60;;;;;;;;;;5048418;28;20211;-76
2022/09/13 08:37:59;;;;;;;1.93;1.60;;;;;;;;;;5050146;28;20184;-76
2022/09/13 08:40:27;;;;;;;1.93;1.53;;;;;;;;;;5048897;28;20522;-76
2022/09/13 08:43:04;;;;;;;1.77;1.67;;;;;;;;;;5041387;28;20209;-76
2022/09/13 08:45:29;;;;;;;2.13;1.30;;;;;;;;;;5052192;28;20194;-76
2022/09/13 08:47:55;;;;;;;3.50;2.00;;;;;;;;;;5047013;28;20215;-76
2022/09/13 08:50:32;;;;;;;2.70;2.37;;;;;;;;;;5049238;28;20176;-76
2022/09/13 08:53:10;;;;;;;1.77;1.67;;;;;;;;;;5065462;28;20172;-76
2022/09/13 08:55:50;;;;;;;2.00;1.90;;;;;;;;;;5047512;28;20200;-76
2022/09/13 08:58:15;;;;;;;4.50;2.00;;;;;;;;;;5042431;28;20454;-76
2022/09/13 09:00:45;;;;;;;2.10;1.90;;;;;;;;;;5049831;28;20176;-76
2022/09/13 09:03:17;;;;;;;2.07;1.60;;;;;;;;;;5041113;28;20209;-76
2022/09/13 09:05:48;;;;;;;2.23;1.70;;;;;;;;;;5054203;28;20203;-76
2022/09/13 09:08:20;;;;;;;1.90;1.70;;;;;;;;;;5051869;28;20168;-76
2022/09/13 09:10:46;;;;;;;1.70;1.60;;;;;;;;;;5050507;28;20182;-75
2022/09/13 09:13:22;;;;;;;1.80;1.70;;;;;;;;;;5070962;28;20252;-76
2022/09/13 09:15:50;;;;;;;1.87;1.77;;;;;;;;;;5046729;28;20266;-76
2022/09/13 09:18:23;;;;;;;2.00;1.90;;;;;;;;;;5047868;28;20268;-76
2022/09/13 09:20:50;;;;;;;2.13;1.70;;;;;;;;;;5051911;28;20218;-76
2022/09/13 09:23:20;;;;;;;2.00;1.80;;;;;;;;;;5049787;28;20185;-76
2022/09/13 09:25:45;;;;;;;2.50;1.70;;;;;;;;;;5045560;28;20193;-76
2022/09/13 09:28:15;;;;;;;2.00;1.90;;;;;;;;;;5072128;28;20178;-76
2022/09/13 09:31:01;;;;;;;1.73;1.63;;;;;;;;;;5065543;28;20171;-76
2022/09/13 09:33:45;;;;;;;5.80;2.00;;;;;;;;;;5064166;28;20184;-82
2022/09/13 09:36:16;;;;;;;1.60;1.50;;;;;;;;;;5049077;28;20178;-78
2022/09/13 09:38:42;;;;;;;1.90;1.67;;;;;;;;;;5052854;28;20177;-78
2022/09/13 09:41:13;;;;;;;1.90;1.60;;;;;;;;;;5053138;28;20214;-79
2022/09/13 09:43:45;;;;;;;1.90;1.70;;;;;;;;;;5047136;28;20176;-80
2022/09/13 09:46:13;;;;;;;1.67;1.57;;;;;;;;;;5046123;28;20183;-79
2022/09/13 09:48:42;;;;;;;1.60;1.50;;;;;;;;;;5068562;28;20228;-79
2022/09/13 09:51:09;;;;;;;2.57;1.70;;;;;;;;;;5065125;28;20560;-79
2022/09/13 09:53:37;;;;;;;2.23;1.43;;;;;;;;;;5053509;28;20194;-79
2022/09/13 09:56:17;;;;;;;2.60;1.87;;;;;;;;;;5054592;28;20173;-80
2022/09/13 09:58:43;;;;;;;1.60;1.50;;;;;;;;;;5048143;28;20215;-79
2022/09/13 10:01:20;;;;;;;1.87;1.60;;;;;;;;;;5072398;28;20232;-79
2022/09/13 10:03:53;;;;;;;1.50;1.40;;;;;;;;;;5052192;28;20188;-80
2022/09/13 10:06:20;;;;;;;2.17;1.60;;;;;;;;;;5045219;28;20239;-79
2022/09/13 10:09:05;;;;;;;1.50;1.40;;;;;;;;;;5049152;28;20207;-79
2022/09/13 10:11:45;;;;;;;2.80;1.60;;;;;;;;;;5048556;28;20215;-79
2022/09/13 10:14:26;;;;;;;2.73;1.80;;;;;;;;;;5044890;28;20187;-79
2022/09/13 10:17:03;;;;;;;1.40;1.30;;;;;;;;;;5053544;28;20272;-79
2022/09/13 10:19:29;;;;;;;1.92;1.30;;;;;;;;;;5049288;28;20181;-80
2022/09/13 10:22:01;;;;;;;1.40;1.30;;;;;;;;;;5049772;28;20211;-79
2022/09/13 10:24:27;;;;;;;1.83;1.50;;;;;;;;;;5068112;28;20265;-80
2022/09/13 10:26:52;;;;;;;1.73;1.30;;;;;;;;;;5053060;28;20241;-79
2022/09/13 10:29:18;;;;;;;1.60;1.50;;;;;;;;;;5063881;28;20221;-79
2022/09/13 10:31:45;;;;;;;1.60;1.50;;;;;;;;;;5053719;28;20236;-80
2022/09/13 10:34:13;;;;;;;3.90;1.48;;;;;;;;;;5048487;28;20202;-80
2022/09/13 10:36:42;;;;;;;1.60;1.50;;;;;;;;;;5043782;28;20181;-79
2022/09/13 10:39:16;;;;;;;3.00;1.30;;;;;;;;;;5044086;28;20197;-80
2022/09/13 10:41:41;;;;;;;1.92;1.38;;;;;;;;;;5047448;28;20271;-79
2022/09/13 10:44:22;;;;;;;1.70;1.40;;;;;;;;;;5071789;28;20173;-79
2022/09/13 10:46:48;;;;;;;1.92;1.50;;;;;;;;;;5044460;28;20181;-80
2022/09/13 10:49:32;;;;;;;1.85;1.50;;;;;;;;;;5044294;28;20174;-80
2022/09/13 10:51:57;;;;;;;1.95;1.30;;;;;;;;;;5061022;28;20511;-80
2022/09/13 10:54:22;;;;;;;1.70;1.60;;;;;;;;;;5048775;28;20174;-80
2022/09/13 10:56:49;;;;;;;2.97;1.60;;;;;;;;;;5057650;28;20184;-80
2022/09/13 10:59:23;;;;;;;1.40;1.27;;;;;;;;;;5048387;28;20173;-80
2022/09/13 11:02:10;;;;;;;1.42;1.33;;;;;;;;;;5040342;28;20186;-80
2022/09/13 11:04:41;;;;;;;1.20;1.17;;;;;;;;;;5046384;28;20165;-80
2022/09/13 11:07:16;;;;;;;5.38;1.55;;;;;;;;;;5048006;28;20219;-80
2022/09/13 11:09:46;;;;;;;2.30;2.08;;;;;;;;;;5047813;28;20187;-80
2022/09/13 11:12:17;;;;;;;1.38;1.27;;;;;;;;;;5047936;28;20203;-79
2022/09/13 11:14:42;;;;;;;2.25;1.40;;;;;;;;;;5050081;28;20268;-80
2022/09/13 11:17:23;;;;;;;1.40;1.30;;;;;;;;;;5050814;28;20319;-80
2022/09/13 11:19:55;;;;;;;1.67;1.25;;;;;;;;;;5066022;28;20182;-80
2022/09/13 11:22:20;;;;;;;4.35;1.60;;;;;;;;;;5046665;28;20202;-80
2022/09/13 11:24:50;;;;;;;2.20;1.70;;;;;;;;;;5063567;28;20183;-80
2022/09/13 11:27:23;;;;;;;3.20;1.48;;;;;;;;;;5048641;28;20193;-79
2022/09/13 11:29:55;;;;;;;2.53;1.40;;;;;;;;;;5051887;28;20306;-80
2022/09/13 11:32:32;;;;;;;1.67;1.58;;;;;;;;;;5061457;28;20189;-80
2022/09/13 11:35:16;;;;;;;1.20;1.20;;;;;;;;;;5052303;28;20193;-80
2022/09/13 11:37:46;;;;;;;1.55;1.45;;;;;;;;;;5052779;28;20169;-79
2022/09/13 11:40:30;;;;;;;1.40;1.30;;;;;;;;;;5044820;28;20181;-80
2022/09/13 11:43:14;;;;;;;1.42;1.33;;;;;;;;;;5066787;28;20205;-80
2022/09/13 11:45:48;;;;;;;3.05;1.52;;;;;;;;;;5046496;28;20181;-80
2022/09/13 11:48:23;;;;;;;1.50;1.40;;;;;;;;;;5048593;28;20181;-80
2022/09/13 11:50:51;;;;;;;2.65;1.38;;;;;;;;;;5057264;28;20166;-80
2022/09/13 11:53:32;;;;;;;2.30;2.10;;;;;;;;;;5044851;28;20233;-79
2022/09/13 11:56:02;;;;;;;2.20;1.50;;;;;;;;;;5044317;28;20174;-79
2022/09/13 11:58:38;;;;;;;2.20;1.48;;;;;;;;;;5051774;28;20173;-79
2022/09/13 12:01:09;;;;;;;3.35;1.58;;;;;;;;;;5050553;28;20173;-80
2022/09/13 12:03:49;;;;;;;1.95;1.40;;;;;;;;;;5048823;28;20177;-79
2022/09/13 12:06:26;;;;;;;4.03;1.98;;;;;;;;;;5049182;28;20161;-79
2022/09/13 12:08:56;;;;;;;2.60;2.00;;;;;;;;;;5067502;28;20173;-80
2022/09/13 12:11:23;;;;;;;1.88;1.55;;;;;;;;;;5044066;28;20180;-80
2022/09/13 12:13:55;;;;;;;1.50;1.40;;;;;;;;;;5047231;28;20177;-80
2022/09/13 12:16:32;;;;;;;1.98;1.85;;;;;;;;;;5045858;28;20181;-80
2022/09/13 12:18:59;;;;;;;2.78;1.75;;;;;;;;;;5045979;28;20379;-80
2022/09/13 12:21:38;;;;;;;1.98;1.88;;;;;;;;;;5049235;28;20205;-80
2022/09/13 12:24:20;;;;;;;1.58;1.48;;;;;;;;;;5048799;28;20185;-79
2022/09/13 12:26:49;;;;;;;5.38;2.20;;;;;;;;;;5041105;28;20178;-80
2022/09/13 12:29:17;;;;;;;2.33;1.63;;;;;;;;;;5051632;28;20232;-80
2022/09/13 12:31:43;;;;;;;2.80;1.90;;;;;;;;;;5048868;28;20178;-80
2022/09/13 12:34:10;;;;;;;2.03;1.52;;;;;;;;;;5066138;28;20207;-80
2022/09/13 12:36:59;;;;;;;2.08;1.60;;;;;;;;;;5053571;28;20204;-79
2022/09/13 12:39:33;;;;;;;4.03;1.70;;;;;;;;;;5071421;28;20177;-80
2022/09/13 12:42:15;;;;;;;1.80;1.70;;;;;;;;;;5047873;28;20200;-80
2022/09/13 12:44:55;;;;;;;1.70;1.60;;;;;;;;;;5050212;28;20176;-80
2022/09/13 12:47:39;;;;;;;2.33;1.60;;;;;;;;;;5066946;28;20177;-79
2022/09/13 12:50:23;;;;;;;4.47;2.30;;;;;;;;;;5047167;28;20185;-80
2022/09/13 12:52:49;;;;;;;1.70;1.60;;;;;;;;;;5048199;28;20189;-80
2022/09/13 12:55:20;;;;;;;1.50;1.40;;;;;;;;;;5074883;28;20181;-80
2022/09/13 12:58:04;;;;;;;1.77;1.45;;;;;;;;;;5048992;28;20195;-80
2022/09/13 13:00:38;;;;;;;3.47;2.90;;;;;;;;;;5050529;28;20188;-80
2022/09/13 13:03:10;;;;;;;1.88;1.58;;;;;;;;;;5054316;28;20215;-80
2022/09/13 13:05:41;;;;;;;3.20;1.88;;;;;;;;;;5053804;28;20180;-80
2022/09/13 13:08:19;;;;;;;2.55;1.75;;;;;;;;;;5055770;28;20181;-80
2022/09/13 13:10:44;;;;;;;1.80;1.40;;;;;;;;;;5047933;28;20186;-80
2022/09/13 13:13:16;;;;;;;1.60;1.50;;;;;;;;;;5053738;28;20181;-80
2022/09/13 13:15:42;;;;;;;6.95;1.42;;;;;;;;;;5046789;28;20191;-80
2022/09/13 13:18:21;;;;;;;2.58;1.63;;;;;;;;;;5045988;28;20182;-80
2022/09/13 13:20:52;;;;;;;2.25;1.70;;;;;;;;;;5046176;28;20184;-79
2022/09/13 13:23:26;;;;;;;1.60;1.50;;;;;;;;;;5044979;28;20209;-79
2022/09/13 13:26:12;;;;;;;1.70;1.60;;;;;;;;;;5054915;28;20185;-80
2022/09/13 13:28:43;;;;;;;2.65;2.00;;;;;;;;;;5050930;28;20229;-80
2022/09/13 13:31:09;;;;;;;1.50;1.30;;;;;;;;;;5049211;28;20170;-80
2022/09/13 13:33:51;;;;;;;1.92;1.83;;;;;;;;;;5056667;28;20201;-79
2022/09/13 13:36:25;;;;;;;1.77;1.50;;;;;;;;;;5051132;28;20186;-80
2022/09/13 13:39:00;;;;;;;1.80;1.65;;;;;;;;;;5043175;28;20256;-79
2022/09/13 13:41:28;;;;;;;1.98;1.88;;;;;;;;;;5052532;28;20224;-79
2022/09/13 13:43:54;;;;;;;1.50;1.40;;;;;;;;;;5054482;28;20178;-80
2022/09/13 13:46:27;;;;;;;1.63;1.30;;;;;;;;;;5052827;28;20268;-79
2022/09/13 13:48:52;;;;;;;1.80;1.70;;;;;;;;;;5048367;28;20216;-80
2022/09/13 13:51:20;;;;;;;1.67;1.50;;;;;;;;;;5072437;28;20181;-80
2022/09/13 13:53:48;;;;;;;1.52;1.42;;;;;;;;;;5050404;28;20186;-80
2022/09/13 13:56:23;;;;;;;1.65;1.55;;;;;;;;;;5055067;28;20177;-79
2022/09/13 13:59:02;;;;;;;1.50;1.40;;;;;;;;;;5052295;28;20185;-80
2022/09/13 14:01:30;;;;;;;1.70;1.60;;;;;;;;;;5054456;28;20204;-80
2022/09/13 14:04:04;;;;;;;2.13;1.52;;;;;;;;;;5052604;28;20494;-80
2022/09/13 14:06:34;;;;;;;1.60;1.30;;;;;;;;;;5046277;28;20184;-81
2022/09/13 14:09:02;;;;;;;1.48;1.30;;;;;;;;;;5046992;28;20178;-81
2022/09/13 14:11:39;;;;;;;2.40;1.60;;;;;;;;;;5069482;28;20189;-81
2022/09/13 14:14:16;;;;;;;1.58;1.48;;;;;;;;;;5052189;28;20188;-81
2022/09/13 14:16:48;;;;;;;2.55;1.38;;;;;;;;;;5050976;28;20212;-81
2022/09/13 14:19:13;;;;;;;1.55;1.40;;;;;;;;;;5049994;28;20181;-82
2022/09/13 14:21:38;;;;;;;2.20;1.40;;;;;;;;;;5050404;28;20205;-82
2022/09/13 14:24:18;;;;;;;1.85;1.40;;;;;;;;;;5052171;28;20260;-82
2022/09/13 14:26:47;;;;;;;1.55;1.45;;;;;;;;;;5065738;28;20177;-82
2022/09/13 14:29:17;;;;;;;1.45;1.35;;;;;;;;;;5039708;28;20217;-81
2022/09/13 14:31:50;;;;;;;1.42;1.33;;;;;;;;;;5034176;28;20202;-82
2022/09/13 14:34:36;;;;;;;1.77;1.45;;;;;;;;;;5051607;28;20197;-81
2022/09/13 14:37:03;;;;;;;1.38;1.30;;;;;;;;;;5031925;28;20174;-82
2022/09/13 14:39:29;;;;;;;1.60;1.50;;;;;;;;;;5051720;28;20216;-82
2022/09/13 14:42:02;;;;;;;1.60;1.50;;;;;;;;;;5030479;28;20187;-81
2022/09/13 14:44:28;;;;;;;3.25;1.48;;;;;;;;;;5033212;28;20189;-81
2022/09/13 14:47:13;;;;;;;1.70;1.60;;;;;;;;;;5026646;28;20241;-81
2022/09/13 14:49:40;;;;;;;2.10;1.30;;;;;;;;;;4993844;28;20190;-82
2022/09/13 14:52:15;;;;;;;5.30;1.70;;;;;;;;;;5030201;28;20329;-82
2022/09/13 14:54:47;;;;;;;1.50;1.40;;;;;;;;;;5033847;28;20201;-81
2022/09/13 14:57:24;;;;;;;1.90;1.80;;;;;;;;;;5027909;28;20209;-81